Henry Brown

Olheiro-Chefe - Leeds United
29 Abr 2027
Quinta-feira
Processo

Personalidade

Adaptabilidade (9) Ambição (12) Controvérsia (9) Lealdade (11) Pressão (15) Profissionalismo (7) Espírito Esportivo (3) Temperamento (15)

Perfil

Estilo de Treinamento Democrático
Licença Nacional A
Determinação 6
Gestão de Pessoas 12
Motivação 13
Disciplina 6
Satisfação no Trabalho
50%
Fadiga
0%
Função Olheiro-Chefe
Salário 52.4K p/s
Contrato 14.03.2028

Desempenho

Comportamento Normal
Eficácia do Treinamento
24%
Desenvolvimento do Jogador
55%
Prevenção de Lesões
45%
Implementação Tática
65%

Eventos Recentes

Avaliou um jogador agora
Participou de uma reunião de recrutamento agora
Participou de uma reunião de recrutamento agora
Participou de uma reunião de recrutamento agora
Avaliou um jogador 7d atrás
Avaliou um jogador 7d atrás
Avaliou um jogador 7d atrás
Avaliou um jogador 7d atrás

Monitorando agora

171
Jogador Clube Status Habilidade Confiança Observado Última observação Último voto
Ryan Sessegnon Fulham Ativo 141 / 145 40% 6 27.04.2027 -
Manu Koné AS Roma Ativo 165 / 172 40% 3 27.04.2027 -
Calvin Bassey Fulham Ativo 143 / 139 40% 5 27.04.2027 -
James Garner Everton Ativo 152 / 145 40% 6 26.04.2027 -
Oumar Solet Udinese Ativo 151 / 137 40% 2 26.04.2027 -
Alessandro Buongiorno Sassuolo Ativo 155 / 162 40% 3 26.04.2027 -
Hector Ramirez Newcastle United Ativo 154 / 157 40% 9 25.04.2027 -
Alex Scott Bournemouth Ativo 155 / 150 40% 2 25.04.2027 -
Raoul Bellanova Atalanta Ativo 153 / 140 40% 2 25.04.2027 -
Nathan Collins Brentford Ativo 149 / 143 40% 7 24.04.2027 -
Adrien Truffert Bournemouth Ativo 157 / 158 40% 8 24.04.2027 -
Lucas Da Cunha Como Ativo 143 / 148 40% 2 24.04.2027 -
Matvey Kislyak CSKA Moscow Ativo 127 / 123 40% 3 22.04.2027 -
Noël Aséko Eintracht Frankfurt Ativo 129 / 127 40% 2 22.04.2027 -
Rabby Nzingoula West Bromwich Albion Ativo 121 / 118 40% 2 22.04.2027 -
Joško Gvardiol Napoli Ativo 165 / 167 40% 1 22.04.2027 -
Jofre Torrents Ajax Ativo 126 / 135 40% 3 21.04.2027 -
Matías Gómez Granada Ativo 112 / 111 40% 1 21.04.2027 -
Tobias Slotsager Casertana Ativo 106 / 116 40% 1 21.04.2027 -
Nico González Newcastle United Ativo 156 / 168 40% 9 19.04.2027 -
Ian Maatsen Aston Villa Ativo 149 / 147 40% 3 19.04.2027 -
Aaron Hickey Brentford Ativo 142 / 157 40% 5 19.04.2027 -
Quinten Timber Crystal Palace Ativo 146 / 162 40% 8 18.04.2027 -
Ousmane Diomande Nottingham Forest Ativo 151 / 143 40% 8 18.04.2027 -
Keane Lewis-Potter Brentford Ativo 149 / 137 40% 5 18.04.2027 -
Eivind Helland Bologna Ativo 127 / 133 40% 1 18.04.2027 -
Kaick FC Dallas Ativo 100 / 124 40% 1 18.04.2027 -
Davide Bartesaghi AC Milan Ativo 127 / 139 40% 1 18.04.2027 -
Nuno Tavares Lazio Ativo 146 / 136 40% 5 16.04.2027 -
Boubacar Kamara Aston Villa Ativo 160 / 170 40% 7 16.04.2027 -
Ferdi Kadıoğlu Brighton Ativo 148 / 157 40% 3 15.04.2027 -
Lewis Ferguson Bologna Ativo 138 / 139 40% 4 15.04.2027 -
Amadou Onana Aston Villa Ativo 152 / 167 40% 3 15.04.2027 -
Noah Sadiki Sunderland Ativo 144 / 149 40% 5 14.04.2027 -
Juanlu Bournemouth Ativo 144 / 139 40% 10 13.04.2027 -
Nicolò Rovella Lazio Ativo 155 / 149 40% 4 13.04.2027 -
Michael Kayode Brentford Ativo 145 / 157 40% 1 13.04.2027 -
Jake O'Brien Everton Ativo 151 / 137 40% 5 12.04.2027 -
Josh King Chelsea Ativo 141 / 151 40% 2 12.04.2027 -
Lewis Hall Newcastle United Ativo 145 / 141 40% 3 10.04.2027 -
Jarrad Branthwaite Everton Ativo 155 / 167 40% 1 10.04.2027 -
Yehor Yarmoliuk Brentford Ativo 151 / 152 40% 6 09.04.2027 -
Óscar Mingueza Crystal Palace Ativo 152 / 140 40% 5 09.04.2027 -
Sven Botman Newcastle United Ativo 158 / 168 40% 5 07.04.2027 -
Adam Wharton Crystal Palace Ativo 156 / 147 40% 7 05.04.2027 -
Alessandro Bastoni Inter Ativo 166 / 175 40% 2 03.04.2027 -
Johan Manzambi Newcastle United Ativo 143 / 149 40% 2 03.04.2027 -
Tino Livramento Newcastle United Ativo 159 / 154 40% 1 03.04.2027 -
Ezra Mayers West Ham United Ativo 118 / 130 40% 1 03.04.2027 -
Curtis Jones Inter Ativo 155 / 149 40% 7 30.03.2027 -
Cheick Doucouré Crystal Palace Ativo 144 / 154 40% 2 27.03.2027 -
David Ozoh Derby County Ativo 126 / 127 40% 2 26.03.2027 -
Murillo Nottingham Forest Ativo 159 / 157 40% 1 24.03.2027 -
Valentin Atangana Al-Ahli Ativo 124 / 127 40% 1 20.03.2027 -
Jaygo van Ommeren Utrecht Ativo 104 / 112 40% 1 20.03.2027 -
Leonardo Mendicino Bari Ativo 107 / 112 40% 1 20.03.2027 -
Malick Thiaw West Ham United Ativo 149 / 160 40% 5 16.03.2027 -
Ernie Weaver AFC Wimbledon Ativo 104 / 127 40% 1 12.03.2027 -
James Dornelly Peterborough United Ativo 104 / 112 40% 1 12.03.2027 -
Jack Hinshelwood Brighton Ativo 144 / 137 40% 2 10.03.2027 -
Ismail Al Suwaidi Al Fujairah Ativo 123 / 138 40% 2 09.03.2027 -
Lucas Bergvall Tottenham Ativo 141 / 144 40% 1 09.03.2027 -
Christ Inao Oulaï Fiorentina Ativo 139 / 151 40% 1 04.03.2027 -
Matteo Gabbia AC Milan Ativo 156 / 160 40% 1 03.03.2027 -
Trevoh Chalobah Como Ativo 153 / 143 40% 1 01.03.2027 -
André Wolverhampton Ativo 142 / 150 40% 2 23.02.2027 -
Pedro Porro Tottenham Ativo 144 / 140 40% 1 18.02.2027 -
Micky van de Ven Tottenham Ativo 157 / 165 40% 1 09.02.2027 -
Gonzalo Fulham Ativo 148 / 147 40% 10 11.01.2027 -
Brian Brobbey Sunderland Ativo 144 / 146 40% 3 11.01.2027 -
Kenan Yıldız Juventus Ativo 164 / 171 40% 1 11.01.2027 -
Felipe Augusto Zenit Ativo 140 / 150 40% 3 01.01.2027 -
Roberto Alvarado Monaco Negociando 139 / 139 89% 1 01.01.2027 Aprovar
Dmytro Riznyk Cruz Azul Negociando 137 / 137 66% 1 01.01.2027 -
Alex Scott Bournemouth Perdido 145 / 155 76% 1 01.01.2027 -
Nicolás Fernández Mercau Shakhtar Ativo 131 / 140 40% 5 31.12.2026 -
Dango Ouattara Brentford Ativo 139 / 146 40% 4 31.12.2026 -
Georginio Rutter Brighton Ativo 146 / 144 40% 6 30.12.2026 -
Pablo Felipe West Ham United Ativo 137 / 140 40% 5 30.12.2026 -
Carlos Augusto Inter Ativo 155 / 145 40% 2 30.12.2026 -
Dom Ballard Leyton Orient Ativo 115 / 128 40% 5 28.12.2026 -
Ruben van Bommel Ferencvaros Ativo 141 / 134 40% 5 28.12.2026 -
Matt O'Riley Brighton Ativo 141 / 147 40% 2 27.12.2026 -
Lorenzo Colombo Genoa Ativo 137 / 126 40% 1 27.12.2026 -
Aidomo Emakhu Oxford United Ativo 120 / 114 40% 3 26.12.2026 -
Mats Wieffer Brighton Ativo 152 / 149 40% 1 24.12.2026 -
Sandro Tonali Tottenham Ativo 176 / 179 40% 3 23.12.2026 -
Julio Enciso Ipswich Town Ativo 151 / 154 40% 1 23.12.2026 Mais informações
Jaden Philogene Ipswich Town Ativo 144 / 127 40% 1 23.12.2026 -
Rodrigo Gomes Wolverhampton Ativo 135 / 153 40% 1 21.12.2026 -
Reiss Nelson Aston Villa Ativo 141 / 152 40% 1 21.12.2026 -
Joe Gelhardt Hull City Ativo 132 / 142 40% 5 19.12.2026 -
Miles Leaburn Charlton Athletic Ativo 112 / 108 40% 2 19.12.2026 -
Andri Guðjohnsen Blackburn Rovers Ativo 126 / 116 40% 2 19.12.2026 -
Talles Magno Wolverhampton Ativo 133 / 123 40% 2 18.12.2026 -
Marezi Portsmouth Ativo 122 / 121 40% 4 18.12.2026 -
Assane Diao Lazio Ativo 140 / 147 40% 2 18.12.2026 -
Will Lankshear Middlesbrough Ativo 119 / 130 40% 4 17.12.2026 -
Gabriel Martinelli Brighton Ativo 160 / 155 40% 2 17.12.2026 -
Giacomo Raspadori Atalanta Ativo 149 / 151 40% 1 17.12.2026 -
Reece James Chelsea Ativo 170 / 180 40% 3 16.12.2026 -
Tom Fellows Southampton Ativo 129 / 123 40% 2 16.12.2026 -
Conor Gallagher Tottenham Ativo 150 / 143 40% 1 16.12.2026 -
Bénie Traoré New York City Ativo 123 / 122 40% 5 10.12.2026 -
Morgan Rogers Chelsea Ativo 163 / 164 40% 7 09.12.2026 -
Fábio Carvalho Brentford Ativo 139 / 136 40% 3 09.12.2026 -
Tom Cannon Sheffield United Ativo 127 / 120 40% 4 08.12.2026 -
Rayan Bournemouth Ativo 133 / 139 40% 2 06.12.2026 -
Yousef Salech Cardiff City Ativo 125 / 113 40% 2 06.12.2026 -
Kevin Kelsy Portland Timbers Ativo 122 / 137 40% 1 06.12.2026 -
Abu Kamara Portsmouth Ativo 116 / 126 40% 1 04.12.2026 -
Shahriar Dejagah Tractor Ativo 121 / 109 40% 2 03.12.2026 -
Wilson Isidor Sunderland Ativo 130 / 143 40% 1 03.12.2026 -
Cameron Archer Southampton Ativo 130 / 135 40% 2 01.12.2026 -
Liel Abada Charlotte Football Club Ativo 138 / 123 40% 4 30.11.2026 -
José Paradela Cruz Azul Ativo 135 / 144 40% 1 30.11.2026 Mais informações
Richard Koné Queens Park Rangers Ativo 116 / 133 40% 6 28.11.2026 -
Tommy Conway Middlesbrough Ativo 121 / 126 40% 5 26.11.2026 -
Moisés Caicedo Chelsea Ativo 172 / 166 40% 1 26.11.2026 -
Yaroslav Gladyshev Dinamo Moscow Ativo 128 / 139 40% 1 24.11.2026 -
Armindo Sieb Los Angeles Football Club Ativo 117 / 127 40% 7 21.11.2026 -
Jack Rudoni Coventry City Ativo 131 / 138 40% 4 20.11.2026 -
Mohamed-Ali Cho Hull City Ativo 126 / 131 40% 1 20.11.2026 -
Alexander Aravena Portland Timbers Ativo 125 / 131 40% 3 15.11.2026 -
Aral Şimşir Trabzonspor Ativo 135 / 129 40% 1 13.11.2026 -
Agustín Anello Philadelphia Union Ativo 119 / 114 40% 3 12.11.2026 -
Manfred Ugalde Spartak Moscow Ativo 140 / 117 40% 6 12.11.2026 -
Theo Corbeanu Toronto FC Ativo 127 / 136 40% 3 10.11.2026 -
Nəriman Axundzadə Columbus Crew Ativo 127 / 130 40% 5 10.11.2026 -
Ibrahim Aliyu Houston Dynamo Ativo 108 / 116 40% 4 10.11.2026 -
Amad Manchester United Ativo 150 / 164 40% 1 10.11.2026 -
Louis Munteanu DC United Ativo 124 / 126 40% 3 08.11.2026 -
Ilyas Ansah Hull City Ativo 134 / 130 40% 2 02.11.2026 -
Tyreece Campbell Charlton Athletic Ativo 120 / 130 40% 2 01.11.2026 -
Cole Palmer Chelsea Ativo 168 / 186 40% 2 30.10.2026 -
Agustín Módica Gimnasia y Esgrima Ativo 123 / 129 40% 2 30.10.2026 -
Malo Gusto Chelsea Ativo 147 / 159 40% 1 30.10.2026 -
Jan Paul van Hecke Tottenham Ativo 152 / 147 40% 1 30.10.2026 -
Ignacio Lago Colón Ativo 115 / 111 40% 1 28.10.2026 -
Carlos Vicente Birmingham Ativo 145 / 131 40% 2 24.10.2026 -
Dejan Kulusevski Tottenham Ativo 167 / 168 40% 1 24.10.2026 -
Yankuba Minteh Brighton Ativo 144 / 163 40% 2 23.10.2026 -
Mason Mount Manchester United Ativo 146 / 148 40% 1 23.10.2026 -
Alan Velasco Boca Juniors Ativo 130 / 138 40% 2 21.10.2026 -
Carlos Alcaraz Everton Ativo 144 / 152 40% 1 21.10.2026 -
João Pedro Chelsea Ativo 154 / 159 40% 2 19.10.2026 -
Riqui Puig LA Galaxy Ativo 141 / 140 40% 2 19.10.2026 -
Antony Portland Timbers Ativo 128 / 147 40% 1 19.10.2026 -
August Priske Birmingham Ativo 131 / 119 40% 2 17.10.2026 -
Nicolò Tresoldi Club Brugge Ativo 130 / 126 40% 3 12.10.2026 -
Matheus Cunha Manchester United Ativo 156 / 153 40% 1 12.10.2026 -
Telasco Segovia Inter Miami CF Ativo 126 / 120 40% 1 11.10.2026 -
Jeong Sang-Bin St. Louis CITY SC Ativo 105 / 105 40% 2 06.10.2026 -
Loum Tchaouna Coventry City Ativo 137 / 127 40% 1 05.10.2026 -
Efraín Álvarez Guadalajara Ativo 129 / 132 40% 2 01.10.2026 -
Bradley Barcola Liverpool Ativo 152 / 163 40% 3 30.09.2026 -
Álvaro Rodríguez Bournemouth Ativo 135 / 126 40% 3 25.09.2026 -
Lorent Tolaj Plymouth Argyle Ativo 116 / 118 40% 1 25.09.2026 -
Matheus Nascimento FC Dallas Ativo 106 / 113 40% 2 24.09.2026 -
Daniel Karlsbakk Sarpsborg 08 Ativo 129 / 123 40% 1 21.09.2026 -
Philippe Ndinga Philadelphia Union Ativo 117 / 131 40% 1 21.09.2026 -
Kevin Vazquez Cruz Azul Ativo 122 / 138 40% 1 21.09.2026 -
Mbekezeli Mbokazi Chicago Fire Ativo 122 / 123 40% 1 21.09.2026 -
Reed Baker-Whiting Nashville SC Ativo 98 / 97 40% 1 14.09.2026 -
Cemran Dansin Orlando Pirates Ativo 113 / 128 40% 1 14.09.2026 -
Romelu Witsel Liverpool Ativo 167 / 177 40% 4 12.09.2026 -
Hugo Ekitiké Liverpool Ativo 153 / 154 40% 1 07.09.2026 -
Mathys Tel Tottenham Ativo 138 / 137 40% 1 01.09.2026 -
Simphiwe Selepe Orlando Pirates Ativo 115 / 128 40% 1 02.08.2026 -
Isaac Kyereh Liberty Professionals Ativo 106 / 116 40% 1 02.08.2026 -
Rico Lewis Manchester City Ativo 145 / 161 40% 1 02.08.2026 -